Triana, Alabama
Current Conditions -  °F | °C
As of 6:53 PM on Tuesday 21 Oct 2014 (Local Time) from KHSV Reporting Station
Clear Clear  
Wind Chill: 66°   Ceiling: Unl
Heat Index: 66°   Visibility: 10mi
Dew Point: 46°   Wind: 3mph
Humidity: 48%   Direction: 350°N
Pressure: 30.03"   Gusts: NA
Location:  34.6731°N, 86.8135°W
Report Text: KHSV 212353Z 35003KT 10SM CLR 19/08 A3003 RMK AO2 SLP164 60000 T01890078 10250 20189 53006
Loading
Personal Weather Stations






























Interactive Weather Map
Tropical Storm Tracking
New forecast layout! Learn more

10-Day Weather Forecast

Advertisements
Track Severe Weather on mobile